Time;durP1;ratioP1;P1;durP2;ratioP2;P2;SDS_P1;SDS_P2;PMS_P1;PMS_P2;Temp;Humidity;BMP_temperature;BMP_pressure;BME280_temperature;BME280_humidity;BME280_pressure;Samples;Min_cycle;Max_cycle;Signal;HPM_P1;HPM_P2
2020/12/04 00:03:33;;;;;;;18.47;13.30;;;4.40;99.90;;;;;;5073202;28;20292;-59
2020/12/04 00:05:59;;;;;;;15.90;12.93;;;4.50;99.90;;;;;;5073184;28;20446;-60
2020/12/04 00:08:25;;;;;;;18.30;14.37;;;4.70;99.90;;;;;;5074223;28;20197;-58
2020/12/04 00:10:50;;;;;;;17.07;13.27;;;4.80;99.90;;;;;;5073155;28;20509;-58
2020/12/04 00:13:16;;;;;;;16.73;14.13;;;4.80;99.90;;;;;;5089418;28;20176;-58
2020/12/04 00:15:41;;;;;;;19.07;15.50;;;4.80;99.90;;;;;;5093883;28;20190;-59
2020/12/04 00:18:07;;;;;;;18.27;14.23;;;4.90;99.90;;;;;;5090185;28;20165;-67
2020/12/04 00:20:32;;;;;;;15.57;12.90;;;4.80;99.90;;;;;;5073378;28;20556;-57
2020/12/04 00:22:58;;;;;;;16.87;13.57;;;4.70;99.90;;;;;;5073926;28;20247;-59
2020/12/04 00:25:24;;;;;;;16.70;13.10;;;4.50;99.90;;;;;;5073659;28;20192;-59
2020/12/04 00:27:49;;;;;;;18.07;14.90;;;4.60;99.90;;;;;;5072680;28;20170;-59
2020/12/04 00:30:15;;;;;;;16.57;13.60;;;4.60;99.90;;;;;;5073543;28;20641;-58
2020/12/04 00:32:41;;;;;;;18.33;13.47;;;4.80;99.90;;;;;;5073753;28;20170;-59
2020/12/04 00:35:06;;;;;;;15.67;12.10;;;4.90;99.90;;;;;;5074917;28;20170;-57
2020/12/04 00:37:32;;;;;;;20.13;13.70;;;5.00;99.90;;;;;;5085564;28;20168;-58
2020/12/04 00:39:58;;;;;;;18.10;13.97;;;4.90;99.90;;;;;;5093567;28;20165;-58
2020/12/04 00:42:23;;;;;;;15.90;13.00;;;5.00;99.90;;;;;;5093456;28;20173;-59
2020/12/04 00:44:49;;;;;;;15.70;13.57;;;5.00;99.90;;;;;;5093123;28;20169;-55
2020/12/04 00:47:14;;;;;;;17.37;13.77;;;5.10;99.90;;;;;;5091924;28;20228;-57
2020/12/04 00:49:40;;;;;;;18.40;13.07;;;5.10;99.90;;;;;;5093372;28;20169;-58
2020/12/04 00:52:05;;;;;;;17.10;14.20;;;5.20;99.90;;;;;;5093635;28;20169;-59
2020/12/04 00:54:31;;;;;;;15.50;12.47;;;5.00;99.90;;;;;;5094694;28;20175;-59
2020/12/04 00:56:57;;;;;;;15.53;12.60;;;5.00;99.90;;;;;;5095095;28;20311;-56
2020/12/04 00:59:22;;;;;;;13.23;11.80;;;4.90;99.90;;;;;;5076726;28;20189;-56
2020/12/04 01:01:48;;;;;;;17.93;13.87;;;4.80;99.90;;;;;;5074261;28;20174;-58
2020/12/04 01:04:14;;;;;;;17.00;13.77;;;4.80;99.90;;;;;;5073017;28;20189;-57
2020/12/04 01:06:39;;;;;;;16.93;12.50;;;4.80;99.90;;;;;;5073183;28;20186;-58
2020/12/04 01:09:05;;;;;;;16.13;12.73;;;4.80;99.90;;;;;;5073212;28;20176;-59
2020/12/04 01:11:32;;;;;;;16.80;13.23;;;4.80;99.90;;;;;;5073277;28;20168;-60
2020/12/04 01:13:58;;;;;;;18.43;14.47;;;4.70;99.90;;;;;;5072706;28;20244;-60
2020/12/04 01:16:24;;;;;;;17.83;13.50;;;4.30;99.90;;;;;;5072325;28;20932;-57
2020/12/04 01:18:50;;;;;;;17.87;14.70;;;4.50;99.90;;;;;;5072581;28;20411;-59
2020/12/04 01:21:15;;;;;;;18.70;14.00;;;4.60;99.90;;;;;;5072274;28;20193;-58
2020/12/04 01:23:41;;;;;;;15.53;12.93;;;4.70;99.90;;;;;;5072198;28;20625;-55
2020/12/04 01:26:08;;;;;;;16.90;14.30;;;4.80;99.90;;;;;;5072875;28;20506;-58
2020/12/04 01:28:34;;;;;;;18.77;15.20;;;4.80;99.90;;;;;;5071219;28;20191;-59
2020/12/04 01:31:00;;;;;;;20.60;14.90;;;4.60;99.90;;;;;;5089819;28;20404;-57
2020/12/04 01:33:25;;;;;;;18.13;13.97;;;4.70;99.90;;;;;;5083256;28;20919;-55
2020/12/04 01:35:51;;;;;;;16.43;13.57;;;4.80;99.90;;;;;;5072596;28;20206;-60
2020/12/04 01:38:16;;;;;;;18.33;14.27;;;4.80;99.90;;;;;;5070699;28;20166;-59
2020/12/04 01:40:42;;;;;;;15.20;12.83;;;4.60;99.90;;;;;;5072375;28;20185;-55
2020/12/04 01:43:08;;;;;;;17.20;14.60;;;4.70;99.90;;;;;;5072602;28;20662;-58
2020/12/04 01:45:36;;;;;;;17.33;13.77;;;4.80;99.90;;;;;;5072765;28;20540;-58
2020/12/04 01:48:03;;;;;;;19.73;14.00;;;4.80;99.90;;;;;;5072403;28;20270;-58
2020/12/04 01:50:29;;;;;;;16.63;12.33;;;4.90;99.90;;;;;;5076316;28;20453;-57
2020/12/04 01:52:56;;;;;;;17.07;13.23;;;5.00;99.90;;;;;;5076104;28;20424;-57
2020/12/04 01:55:22;;;;;;;13.13;11.20;;;5.10;99.90;;;;;;5076289;28;20400;-58
2020/12/04 01:57:47;;;;;;;14.57;11.70;;;5.00;99.90;;;;;;5075381;28;20477;-56
2020/12/04 02:00:14;;;;;;;16.87;13.20;;;5.00;99.90;;;;;;5076039;28;20256;-58
2020/12/04 02:02:43;;;;;;;17.30;13.77;;;5.10;99.90;;;;;;5075452;28;20173;-57
2020/12/04 02:05:09;;;;;;;15.73;12.40;;;5.10;99.90;;;;;;5075897;28;20393;-57
2020/12/04 02:07:50;;;;;;;15.97;13.10;;;5.10;99.90;;;;;;5076511;28;20950;-57
2020/12/04 02:10:25;;;;;;;17.53;12.60;;;5.10;99.90;;;;;;5075379;28;20777;-56
2020/12/04 02:12:52;;;;;;;17.07;14.33;;;5.10;99.90;;;;;;5075861;28;20424;-56
2020/12/04 02:15:18;;;;;;;21.00;14.10;;;5.10;99.90;;;;;;5075863;28;20408;-59
2020/12/04 02:17:44;;;;;;;19.50;15.00;;;5.20;99.90;;;;;;5075008;28;20407;-59
2020/12/04 02:20:13;;;;;;;17.30;13.23;;;5.10;99.90;;;;;;5088968;28;20458;-56
2020/12/04 02:22:39;;;;;;;14.43;12.50;;;5.20;99.90;;;;;;5096121;28;20415;-59
2020/12/04 02:25:07;;;;;;;16.60;13.53;;;5.20;99.90;;;;;;5096376;28;20400;-58
2020/12/04 02:27:33;;;;;;;17.47;13.57;;;5.20;99.90;;;;;;5096028;28;20400;-58
2020/12/04 02:29:59;;;;;;;19.23;14.07;;;5.10;99.90;;;;;;5095413;28;20391;-59
2020/12/04 02:32:24;;;;;;;15.73;13.70;;;5.10;99.90;;;;;;5090221;28;20420;-59
2020/12/04 02:34:50;;;;;;;14.33;12.77;;;5.10;99.90;;;;;;5075472;28;20189;-59
2020/12/04 02:37:15;;;;;;;16.90;14.10;;;5.10;99.90;;;;;;5075935;28;20705;-58
2020/12/04 02:39:41;;;;;;;14.80;12.03;;;5.10;99.90;;;;;;5076004;28;20529;-59
2020/12/04 02:42:07;;;;;;;16.87;13.13;;;5.00;99.90;;;;;;5075887;28;20172;-59
2020/12/04 02:44:33;;;;;;;17.00;14.43;;;5.00;99.90;;;;;;5074587;28;20559;-60
2020/12/04 02:46:58;;;;;;;14.47;12.63;;;4.90;99.90;;;;;;5075210;28;20273;-57
2020/12/04 02:49:24;;;;;;;15.53;12.40;;;4.80;99.90;;;;;;5075559;28;20166;-59
2020/12/04 02:51:50;;;;;;;16.43;12.37;;;4.70;99.90;;;;;;5075761;28;20199;-58
2020/12/04 02:54:17;;;;;;;14.47;12.33;;;4.60;99.90;;;;;;5075028;28;20173;-59
2020/12/04 02:56:43;;;;;;;13.93;11.90;;;4.70;99.90;;;;;;5074655;28;20424;-56
2020/12/04 02:59:09;;;;;;;15.87;12.27;;;4.80;99.90;;;;;;5074790;28;20444;-59
2020/12/04 03:01:36;;;;;;;17.17;13.37;;;4.70;99.90;;;;;;5074015;28;20404;-57
2020/12/04 03:04:02;;;;;;;14.27;11.63;;;4.70;99.90;;;;;;5075387;28;20490;-59
2020/12/04 03:06:27;;;;;;;18.23;12.43;;;4.70;99.90;;;;;;5075467;28;20412;-58
2020/12/04 03:08:53;;;;;;;14.97;11.80;;;4.60;99.90;;;;;;5075261;28;20407;-59
2020/12/04 03:11:23;;;;;;;15.53;12.33;;;4.70;99.90;;;;;;5074800;28;20278;-58
2020/12/04 03:13:49;;;;;;;19.33;12.33;;;4.70;99.90;;;;;;5075153;28;20633;-59
2020/12/04 03:16:16;;;;;;;14.50;11.93;;;4.60;99.90;;;;;;5074596;28;20490;-58
2020/12/04 03:18:42;;;;;;;13.67;11.50;;;4.70;99.90;;;;;;5074156;28;20466;-59
2020/12/04 03:21:07;;;;;;;20.80;14.90;;;4.70;99.90;;;;;;5074968;28;20932;-59
2020/12/04 03:23:33;;;;;;;17.20;12.77;;;4.60;99.90;;;;;;5074939;28;20817;-56
2020/12/04 03:25:59;;;;;;;14.17;12.67;;;4.70;99.90;;;;;;5074707;28;20185;-58
2020/12/04 03:28:24;;;;;;;15.77;13.40;;;4.70;99.90;;;;;;5077742;28;20177;-58
2020/12/04 03:30:50;;;;;;;17.37;13.03;;;4.80;99.90;;;;;;5089607;28;20170;-59
2020/12/04 03:33:16;;;;;;;15.00;12.80;;;4.80;99.90;;;;;;5094258;28;20168;-58
2020/12/04 03:35:41;;;;;;;14.00;12.10;;;4.80;99.90;;;;;;5096029;28;20226;-59
2020/12/04 03:38:07;;;;;;;16.83;13.00;;;4.80;99.90;;;;;;5095360;28;20538;-59
2020/12/04 03:40:32;;;;;;;15.93;13.10;;;4.80;99.90;;;;;;5095091;28;20207;-59
2020/12/04 03:42:58;;;;;;;16.60;13.00;;;4.90;99.90;;;;;;5094703;28;20276;-58
2020/12/04 03:45:24;;;;;;;16.63;13.93;;;4.80;99.90;;;;;;5094710;28;20490;-59
2020/12/04 03:47:49;;;;;;;14.30;12.80;;;4.70;99.90;;;;;;5093970;28;20166;-59
2020/12/04 03:50:15;;;;;;;18.33;13.70;;;4.70;99.90;;;;;;5094223;28;20255;-61
2020/12/04 03:52:40;;;;;;;18.20;14.53;;;4.70;99.90;;;;;;5077940;28;20174;-60
2020/12/04 03:55:09;;;;;;;15.77;12.77;;;4.70;99.90;;;;;;5073211;28;20162;-58
2020/12/04 03:57:35;;;;;;;19.50;14.87;;;4.60;99.90;;;;;;5073453;28;20531;-56
2020/12/04 04:00:01;;;;;;;17.63;14.37;;;4.70;99.90;;;;;;5074163;28;20491;-55
2020/12/04 04:02:27;;;;;;;19.90;15.40;;;4.80;99.90;;;;;;5073949;28;20211;-60
2020/12/04 04:04:52;;;;;;;17.07;14.43;;;4.80;99.90;;;;;;5074053;28;20437;-59
2020/12/04 04:07:18;;;;;;;17.50;14.40;;;4.90;99.90;;;;;;5073897;28;20750;-56
2020/12/04 04:09:43;;;;;;;20.80;16.30;;;4.80;99.90;;;;;;5073960;28;20166;-59
2020/12/04 04:12:09;;;;;;;17.00;13.67;;;4.80;99.90;;;;;;5089518;28;20185;-57
2020/12/04 04:14:35;;;;;;;19.43;14.23;;;4.70;99.90;;;;;;5077992;28;20239;-60
2020/12/04 04:17:01;;;;;;;17.90;14.57;;;4.70;99.90;;;;;;5073512;28;20432;-59
2020/12/04 04:19:27;;;;;;;18.30;13.70;;;4.60;99.90;;;;;;5072920;28;20193;-58
2020/12/04 04:21:53;;;;;;;18.03;13.83;;;4.40;99.90;;;;;;5073618;28;20174;-59
2020/12/04 04:24:19;;;;;;;18.77;14.23;;;4.40;99.90;;;;;;5076076;28;20193;-60
2020/12/04 04:26:48;;;;;;;17.20;14.20;;;4.40;99.90;;;;;;5073408;28;20951;-59
2020/12/04 04:29:13;;;;;;;22.70;14.50;;;4.50;99.90;;;;;;5073640;28;20535;-58
2020/12/04 04:31:39;;;;;;;17.13;13.73;;;4.50;99.90;;;;;;5073354;28;20407;-59
2020/12/04 04:34:04;;;;;;;15.70;12.50;;;4.40;99.90;;;;;;5071823;28;20174;-59
2020/12/04 04:36:30;;;;;;;17.60;13.33;;;4.50;99.90;;;;;;5073682;28;20190;-58
2020/12/04 04:38:56;;;;;;;16.40;14.00;;;4.60;99.90;;;;;;5074240;28;20256;-59
2020/12/04 04:41:21;;;;;;;19.60;14.60;;;4.60;99.90;;;;;;5073921;28;20178;-58
2020/12/04 04:43:47;;;;;;;15.67;13.27;;;4.70;99.90;;;;;;5073303;28;20198;-58
2020/12/04 04:46:31;;;;;;;16.27;13.37;;;4.60;99.90;;;;;;5072060;28;20185;-59
2020/12/04 04:49:05;;;;;;;14.00;11.90;;;4.70;99.90;;;;;;5073311;28;20431;-58
2020/12/04 04:51:31;;;;;;;17.87;13.23;;;4.90;99.90;;;;;;5073737;28;20384;-58
2020/12/04 04:53:58;;;;;;;14.73;12.23;;;4.90;99.90;;;;;;5073521;28;20411;-57
2020/12/04 04:56:24;;;;;;;14.30;12.40;;;5.00;99.90;;;;;;5073406;28;20852;-59
2020/12/04 04:58:51;;;;;;;15.43;13.13;;;5.10;99.90;;;;;;5072969;28;20911;-59
2020/12/04 05:01:17;;;;;;;18.03;13.90;;;4.90;99.90;;;;;;5073126;28;20400;-59
2020/12/04 05:03:59;;;;;;;16.23;13.20;;;5.00;99.90;;;;;;5073739;28;20458;-59
2020/12/04 05:06:35;;;;;;;15.07;11.40;;;5.10;99.90;;;;;;5071965;28;20424;-56
2020/12/04 05:09:03;;;;;;;15.07;11.43;;;5.10;99.90;;;;;;5073284;28;20411;-56
2020/12/04 05:11:30;;;;;;;15.40;12.60;;;5.00;99.90;;;;;;5073201;28;20400;-57
2020/12/04 05:14:17;;;;;;;16.20;12.97;;;5.00;99.90;;;;;;5072342;28;20424;-57
2020/12/04 05:16:44;;;;;;;15.73;12.80;;;4.90;99.90;;;;;;5073274;28;20932;-57
2020/12/04 05:19:11;;;;;;;14.93;12.33;;;4.80;99.90;;;;;;5073272;28;20415;-58
2020/12/04 05:21:38;;;;;;;16.80;12.97;;;5.00;99.90;;;;;;5073927;28;20400;-55
2020/12/04 05:24:05;;;;;;;16.10;13.40;;;5.20;99.90;;;;;;5094213;28;20451;-59
2020/12/04 05:26:35;;;;;;;13.93;12.43;;;5.30;99.90;;;;;;5097607;28;20426;-58
2020/12/04 05:29:03;;;;;;;14.20;12.10;;;5.10;99.90;;;;;;5097537;28;20903;-60
2020/12/04 05:31:34;;;;;;;16.30;12.90;;;5.30;99.90;;;;;;5099775;28;20403;-58
2020/12/04 05:34:17;;;;;;;14.97;12.53;;;5.40;99.90;;;;;;5092298;28;20430;-58
2020/12/04 05:36:45;;;;;;;17.37;12.63;;;5.30;99.90;;;;;;5077733;28;20416;-58
2020/12/04 05:39:11;;;;;;;14.50;12.07;;;5.10;99.90;;;;;;5076964;28;20446;-58
2020/12/04 05:41:48;;;;;;;16.37;11.00;;;5.20;99.90;;;;;;5078245;28;20404;-59
2020/12/04 05:44:15;;;;;;;14.50;11.40;;;5.10;99.90;;;;;;5077259;28;20676;-59
2020/12/04 05:46:52;;;;;;;13.37;11.23;;;4.90;99.90;;;;;;5076453;28;20422;-57
2020/12/04 05:49:18;;;;;;;11.10;9.93;;;4.90;99.90;;;;;;5076270;28;20420;-59
2020/12/04 05:51:43;;;;;;;14.73;11.30;;;4.90;99.90;;;;;;5075490;28;20561;-58
2020/12/04 05:54:12;;;;;;;11.00;9.77;;;4.90;99.90;;;;;;5076378;28;20626;-58
2020/12/04 05:56:39;;;;;;;13.47;11.47;;;5.00;99.90;;;;;;5075564;28;20221;-60
2020/12/04 05:59:12;;;;;;;13.43;9.90;;;5.00;99.90;;;;;;5076809;28;20492;-58
2020/12/04 06:01:43;;;;;;;12.10;10.80;;;5.10;99.90;;;;;;5076597;28;20469;-56
2020/12/04 06:04:09;;;;;;;11.60;9.77;;;5.20;99.90;;;;;;5076343;28;20935;-58
2020/12/04 06:06:35;;;;;;;12.37;10.07;;;5.30;99.90;;;;;;5075568;28;20507;-60
2020/12/04 06:09:07;;;;;;;12.73;10.03;;;5.40;99.90;;;;;;5075462;28;20181;-59
2020/12/04 06:11:43;;;;;;;14.53;12.67;;;5.40;99.90;;;;;;5076362;28;20226;-58
2020/12/04 06:14:19;;;;;;;14.33;11.00;;;5.40;99.90;;;;;;5076158;28;20400;-59
2020/12/04 06:17:05;;;;;;;13.60;10.93;;;5.40;99.90;;;;;;5075112;28;20478;-59
2020/12/04 06:19:35;;;;;;;12.87;10.07;;;5.40;99.90;;;;;;5113508;28;20446;-59
2020/12/04 06:22:09;;;;;;;15.33;10.93;;;5.30;99.90;;;;;;5083338;27;20471;-58
2020/12/04 06:24:56;;;;;;;13.57;10.30;;;5.10;99.90;;;;;;5095615;28;20974;-57
2020/12/04 06:27:44;;;;;;;12.17;9.67;;;4.90;99.90;;;;;;5093951;28;20422;-64
2020/12/04 06:30:15;;;;;;;11.07;9.60;;;4.70;99.90;;;;;;5076716;28;20953;-57
2020/12/04 06:32:48;;;;;;;12.83;10.77;;;4.70;99.90;;;;;;5075269;28;20783;-57
2020/12/04 06:35:14;;;;;;;12.50;10.90;;;4.60;99.90;;;;;;5075449;28;20483;-59
2020/12/04 06:37:41;;;;;;;14.07;11.50;;;4.80;99.90;;;;;;5075463;28;20817;-60
2020/12/04 06:40:31;;;;;;;15.20;11.70;;;5.20;99.90;;;;;;5092289;28;20405;-58
2020/12/04 06:43:00;;;;;;;13.40;10.67;;;5.30;99.90;;;;;;5093605;28;20494;-58
2020/12/04 06:45:46;;;;;;;13.27;10.63;;;5.40;99.90;;;;;;5075344;28;20778;-58
2020/12/04 06:48:17;;;;;;;14.57;12.30;;;5.40;99.90;;;;;;5075611;28;20372;-57
2020/12/04 06:50:50;;;;;;;13.10;11.57;;;5.50;99.90;;;;;;5074045;28;20474;-59
2020/12/04 06:53:16;;;;;;;13.27;11.87;;;5.30;99.90;;;;;;5075727;28;20710;-59
2020/12/04 06:55:43;;;;;;;19.80;13.17;;;5.10;99.90;;;;;;5075331;28;20416;-58
2020/12/04 06:58:09;;;;;;;18.17;12.20;;;4.90;99.90;;;;;;5074190;28;20456;-57
2020/12/04 07:00:35;;;;;;;13.40;11.60;;;4.70;99.90;;;;;;5075292;28;20440;-58
2020/12/04 07:03:03;;;;;;;12.60;10.77;;;4.70;99.90;;;;;;5074472;28;20194;-58
2020/12/04 07:05:29;;;;;;;14.10;11.30;;;4.90;99.90;;;;;;5074098;28;20539;-59
2020/12/04 07:08:08;;;;;;;13.60;10.63;;;5.10;99.90;;;;;;5075113;28;20438;-59
2020/12/04 07:10:35;;;;;;;11.80;10.37;;;5.00;99.90;;;;;;5074981;28;20457;-54
2020/12/04 07:13:03;;;;;;;15.60;12.30;;;5.30;99.90;;;;;;5075284;28;20430;-56
2020/12/04 07:15:29;;;;;;;11.20;10.10;;;5.40;99.90;;;;;;5082255;28;20952;-58
2020/12/04 07:17:59;;;;;;;12.83;10.87;;;5.50;99.90;;;;;;5089272;28;20501;-58
2020/12/04 07:20:34;;;;;;;13.53;11.60;;;5.70;99.90;;;;;;5074538;28;20585;-59
2020/12/04 07:23:00;;;;;;;16.63;11.70;;;5.80;99.90;;;;;;5074810;28;20809;-58
2020/12/04 07:25:27;;;;;;;15.10;11.30;;;5.90;99.90;;;;;;5073597;28;20420;-59
2020/12/04 07:27:54;;;;;;;12.87;11.40;;;6.00;99.90;;;;;;5074808;28;20196;-59
2020/12/04 07:30:21;;;;;;;15.97;12.07;;;6.10;99.90;;;;;;5074804;28;20404;-58
2020/12/04 07:32:54;;;;;;;13.57;11.27;;;6.10;99.90;;;;;;5074451;28;20489;-58
2020/12/04 07:35:21;;;;;;;15.43;12.63;;;6.20;99.90;;;;;;5074627;28;20419;-57
2020/12/04 07:37:47;;;;;;;14.43;12.07;;;6.10;99.90;;;;;;5073490;28;20421;-56
2020/12/04 07:40:14;;;;;;;14.70;11.20;;;5.90;99.90;;;;;;5074360;28;20411;-55
2020/12/04 07:42:40;;;;;;;14.10;12.30;;;6.00;99.90;;;;;;5076483;28;20211;-56
2020/12/04 07:45:06;;;;;;;18.57;12.90;;;5.90;99.90;;;;;;5080936;28;20396;-55
2020/12/04 07:47:32;;;;;;;18.00;13.60;;;5.70;99.90;;;;;;5080644;28;20190;-57
2020/12/04 07:50:02;;;;;;;14.67;12.80;;;5.80;99.90;;;;;;5081432;28;20463;-56
2020/12/04 07:52:36;;;;;;;13.57;11.00;;;5.70;99.90;;;;;;5079686;28;20496;-57
2020/12/04 07:55:14;;;;;;;14.60;12.40;;;5.80;99.90;;;;;;5080550;28;20424;-56
2020/12/04 07:57:57;;;;;;;14.07;12.00;;;5.90;99.90;;;;;;5082458;28;20377;-55
2020/12/04 08:00:23;;;;;;;15.00;12.13;;;6.00;99.90;;;;;;5082237;28;20397;-58
2020/12/04 08:02:49;;;;;;;17.23;13.37;;;6.00;99.90;;;;;;5081032;28;20412;-58
2020/12/04 08:05:21;;;;;;;20.80;13.53;;;6.00;99.90;;;;;;5082417;28;20166;-57
2020/12/04 08:07:53;;;;;;;19.37;14.70;;;6.10;99.90;;;;;;5081045;28;20219;-57
2020/12/04 08:10:22;;;;;;;20.80;14.30;;;6.10;99.90;;;;;;5080937;28;20407;-56
2020/12/04 08:12:50;;;;;;;19.97;14.30;;;5.90;99.90;;;;;;5092839;28;20404;-56
2020/12/04 08:15:18;;;;;;;17.20;13.70;;;5.80;99.90;;;;;;5089932;28;20851;-56
2020/12/04 08:17:44;;;;;;;18.13;14.00;;;5.90;99.90;;;;;;5115419;28;20439;-53
2020/12/04 08:20:18;;;;;;;18.27;15.20;;;6.10;99.90;;;;;;5086525;28;20955;-54
2020/12/04 08:22:49;;;;;;;19.87;15.00;;;6.10;99.90;;;;;;5081563;28;20173;-56
2020/12/04 08:25:29;;;;;;;18.80;14.03;;;6.10;99.90;;;;;;5081792;28;20424;-54
2020/12/04 08:27:56;;;;;;;18.50;12.80;;;6.20;99.90;;;;;;5081510;28;20495;-54
2020/12/04 08:30:27;;;;;;;18.60;13.37;;;6.10;99.90;;;;;;5081180;28;20404;-58
2020/12/04 08:32:58;;;;;;;18.70;14.13;;;6.00;99.90;;;;;;5079775;28;20412;-57
2020/12/04 08:35:37;;;;;;;18.20;13.13;;;6.00;99.90;;;;;;5079671;28;20405;-58
2020/12/04 08:38:08;;;;;;;19.77;12.87;;;6.20;99.90;;;;;;5080294;28;20403;-54
2020/12/04 08:40:35;;;;;;;16.40;13.10;;;6.10;99.90;;;;;;5079419;28;20901;-57
2020/12/04 08:43:19;;;;;;;19.47;15.60;;;5.90;99.90;;;;;;5080409;28;20448;-56
2020/12/04 08:45:47;;;;;;;15.17;13.40;;;6.00;99.90;;;;;;5079554;28;20449;-54
2020/12/04 08:48:15;;;;;;;17.20;14.30;;;5.80;99.90;;;;;;5078867;28;20896;-57
2020/12/04 08:50:50;;;;;;;21.17;14.07;;;5.90;99.90;;;;;;5078707;28;20411;-56
2020/12/04 08:53:20;;;;;;;15.70;12.73;;;6.20;99.90;;;;;;5079719;28;20380;-56
2020/12/04 08:55:50;;;;;;;16.50;12.60;;;6.30;99.90;;;;;;5079609;28;20428;-58
2020/12/04 08:58:17;;;;;;;17.53;13.37;;;6.20;99.90;;;;;;5078508;28;20432;-57
2020/12/04 09:00:44;;;;;;;15.40;12.60;;;6.30;99.90;;;;;;5079594;28;20403;-55
2020/12/04 09:03:10;;;;;;;18.23;13.27;;;6.60;99.90;;;;;;5079898;28;20593;-57
2020/12/04 09:05:35;;;;;;;16.03;11.97;;;6.50;99.90;;;;;;5080219;28;20454;-56
2020/12/04 09:08:01;;;;;;;18.23;14.00;;;6.50;99.90;;;;;;5079873;28;20896;-53
2020/12/04 09:10:26;;;;;;;17.43;13.33;;;6.90;99.90;;;;;;5081087;28;20166;-56
2020/12/04 09:12:55;;;;;;;15.30;12.10;;;6.90;99.90;;;;;;5078806;28;20178;-56
2020/12/04 09:15:21;;;;;;;19.60;14.10;;;7.00;99.90;;;;;;5095744;28;20199;-56
2020/12/04 09:17:47;;;;;;;21.43;14.93;;;7.10;99.90;;;;;;5097974;28;20388;-54
2020/12/04 09:20:14;;;;;;;19.00;14.47;;;6.60;99.90;;;;;;5096350;28;20199;-54
2020/12/04 09:22:40;;;;;;;17.93;12.90;;;6.40;99.90;;;;;;5100730;28;20172;-57
2020/12/04 09:25:08;;;;;;;21.40;14.23;;;6.50;99.90;;;;;;5100761;28;20400;-54
2020/12/04 09:27:34;;;;;;;17.33;13.03;;;6.70;99.90;;;;;;5100548;28;20161;-57
2020/12/04 09:30:00;;;;;;;21.80;14.37;;;6.70;99.90;;;;;;5084562;28;20427;-54
2020/12/04 09:32:27;;;;;;;16.43;12.97;;;6.90;99.90;;;;;;5092853;28;20454;-57
2020/12/04 09:34:53;;;;;;;17.90;12.80;;;6.90;99.90;;;;;;5101024;28;20180;-55
2020/12/04 09:37:25;;;;;;;16.03;12.30;;;6.80;99.90;;;;;;5100447;28;20423;-57
2020/12/04 09:39:56;;;;;;;16.87;12.63;;;6.70;99.90;;;;;;5080136;28;20465;-55
2020/12/04 09:42:24;;;;;;;14.37;12.10;;;6.70;99.90;;;;;;5079775;28;20400;-55
2020/12/04 09:44:51;;;;;;;13.10;11.73;;;6.70;99.90;;;;;;5079207;28;20967;-57
2020/12/04 09:47:17;;;;;;;13.40;11.90;;;6.70;99.90;;;;;;5078768;28;20428;-56
2020/12/04 09:49:44;;;;;;;17.03;12.40;;;6.50;99.90;;;;;;5078842;28;20434;-55
2020/12/04 09:52:10;;;;;;;16.23;12.00;;;6.50;99.90;;;;;;5079093;28;20438;-57
2020/12/04 09:54:37;;;;;;;15.10;12.00;;;6.50;99.90;;;;;;5079084;28;20430;-57
2020/12/04 09:57:05;;;;;;;13.97;11.60;;;6.60;99.90;;;;;;5078981;28;20431;-56
2020/12/04 09:59:31;;;;;;;19.77;15.07;;;6.70;99.90;;;;;;5079130;28;20439;-57
2020/12/04 10:01:57;;;;;;;19.17;13.23;;;6.70;99.90;;;;;;5079715;28;20432;-54
2020/12/04 10:04:24;;;;;;;15.60;13.90;;;6.80;99.90;;;;;;5078474;28;20447;-57
2020/12/04 10:06:50;;;;;;;14.40;12.00;;;6.80;99.90;;;;;;5082022;28;20255;-55
2020/12/04 10:09:16;;;;;;;15.90;11.30;;;6.90;99.90;;;;;;5087341;28;20424;-57
2020/12/04 10:11:42;;;;;;;15.80;12.30;;;6.90;99.90;;;;;;5083208;28;20515;-56
2020/12/04 10:14:08;;;;;;;16.17;13.27;;;6.80;99.90;;;;;;5082286;28;20424;-58
2020/12/04 10:16:34;;;;;;;16.03;12.57;;;6.90;99.90;;;;;;5083549;28;20198;-56
2020/12/04 10:19:00;;;;;;;17.70;12.70;;;6.90;99.90;;;;;;5082388;28;20428;-56
2020/12/04 10:21:26;;;;;;;15.27;11.30;;;6.80;99.90;;;;;;5082804;28;20205;-56
2020/12/04 10:23:54;;;;;;;16.83;12.73;;;7.10;99.90;;;;;;5082064;28;20248;-53
2020/12/04 10:26:21;;;;;;;14.70;11.53;;;7.20;99.90;;;;;;5083396;28;20420;-57
2020/12/04 10:28:46;;;;;;;13.63;12.13;;;7.20;99.90;;;;;;5082067;28;20947;-58
2020/12/04 10:31:12;;;;;;;15.70;12.97;;;7.00;99.90;;;;;;5084138;28;20405;-56
2020/12/04 10:33:37;;;;;;;19.40;12.90;;;7.10;99.90;;;;;;5083524;28;20650;-55
2020/12/04 10:36:03;;;;;;;15.10;12.10;;;7.20;99.90;;;;;;5083159;28;20210;-58
2020/12/04 10:38:29;;;;;;;16.17;11.97;;;7.30;99.90;;;;;;5084180;28;20536;-55
2020/12/04 10:40:56;;;;;;;20.03;14.03;;;7.30;99.90;;;;;;5083160;28;20512;-58
2020/12/04 10:43:21;;;;;;;18.80;13.57;;;7.30;99.90;;;;;;5083706;28;20190;-55
2020/12/04 10:45:48;;;;;;;16.13;13.50;;;7.40;99.90;;;;;;5083832;28;20458;-56
2020/12/04 10:48:14;;;;;;;15.20;11.40;;;7.60;99.90;;;;;;5083960;28;20634;-57
2020/12/04 10:50:39;;;;;;;18.23;13.23;;;7.70;99.90;;;;;;5083024;28;20396;-54
2020/12/04 10:53:05;;;;;;;18.00;13.10;;;7.50;99.90;;;;;;5083748;28;20265;-56
2020/12/04 10:55:30;;;;;;;19.07;13.77;;;7.60;99.90;;;;;;5083428;28;20255;-54
2020/12/04 10:57:56;;;;;;;17.67;12.67;;;7.60;99.90;;;;;;5083477;28;20196;-55
2020/12/04 11:00:21;;;;;;;18.43;12.87;;;7.70;99.90;;;;;;5083792;28;20188;-57
2020/12/04 11:02:49;;;;;;;15.93;11.77;;;7.20;99.90;;;;;;5082231;28;20177;-57
2020/12/04 11:07:59;;;;;;;15.83;12.57;;;7.20;99.90;;;;;;5087722;28;20448;-55
2020/12/04 11:10:25;;;;;;;17.90;12.50;;;7.10;99.90;;;;;;5102502;28;20922;-56
2020/12/04 11:12:50;;;;;;;13.90;10.97;;;6.80;99.90;;;;;;5103290;28;20625;-56
2020/12/04 11:15:16;;;;;;;15.47;12.30;;;6.90;99.90;;;;;;5102901;28;20169;-56
2020/12/04 11:17:42;;;;;;;20.67;13.57;;;7.00;99.90;;;;;;5103277;28;20204;-55
2020/12/04 11:20:07;;;;;;;19.40;12.63;;;7.30;99.90;;;;;;5102524;28;20185;-59
2020/12/04 11:22:34;;;;;;;16.33;12.60;;;7.50;99.90;;;;;;5102323;28;20168;-55
2020/12/04 11:25:03;;;;;;;18.80;13.10;;;7.50;99.90;;;;;;5084029;28;20219;-57
2020/12/04 11:27:29;;;;;;;19.20;13.10;;;7.40;99.90;;;;;;5081145;28;20435;-57
2020/12/04 11:29:54;;;;;;;19.40;13.30;;;7.40;99.90;;;;;;5082864;28;20409;-54
2020/12/04 11:32:20;;;;;;;15.80;12.93;;;7.50;99.90;;;;;;5082725;28;20656;-55
2020/12/04 11:34:46;;;;;;;13.90;12.40;;;7.70;99.90;;;;;;5082995;28;20170;-55
2020/12/04 11:37:12;;;;;;;24.63;14.23;;;7.70;99.90;;;;;;5085304;28;20194;-57
2020/12/04 11:39:40;;;;;;;18.37;12.67;;;7.70;99.90;;;;;;5103030;28;20184;-57
2020/12/04 11:42:12;;;;;;;19.07;13.90;;;7.80;99.90;;;;;;5102901;28;20453;-58
2020/12/04 11:44:38;;;;;;;13.97;12.13;;;8.00;99.90;;;;;;5102553;28;20452;-56
2020/12/04 11:47:03;;;;;;;18.80;14.67;;;8.10;99.90;;;;;;5102912;28;20943;-58
2020/12/04 11:49:29;;;;;;;24.30;15.07;;;7.90;99.90;;;;;;5102986;28;20236;-55
2020/12/04 11:51:58;;;;;;;20.50;14.53;;;7.80;99.90;;;;;;5102435;28;20192;-55
2020/12/04 11:54:23;;;;;;;24.40;15.13;;;7.60;99.90;;;;;;5102213;28;20185;-57
2020/12/04 11:56:52;;;;;;;32.23;16.97;;;7.50;99.90;;;;;;5101676;28;20891;-58
2020/12/04 11:59:20;;;;;;;27.47;15.60;;;7.50;99.90;;;;;;5088212;28;20552;-55
2020/12/04 12:01:46;;;;;;;22.57;16.10;;;7.50;99.90;;;;;;5082198;28;20784;-57
2020/12/04 12:04:14;;;;;;;26.63;17.40;;;7.50;99.90;;;;;;5081986;28;20452;-56
2020/12/04 12:06:41;;;;;;;19.73;14.53;;;7.30;99.90;;;;;;5084120;28;20200;-54
2020/12/04 12:09:07;;;;;;;18.43;15.03;;;7.40;99.90;;;;;;5095805;28;20407;-56
2020/12/04 12:11:33;;;;;;;22.60;15.67;;;7.40;99.90;;;;;;5101719;28;20391;-57
2020/12/04 12:13:59;;;;;;;22.50;15.03;;;7.20;99.90;;;;;;5101687;28;20472;-57
2020/12/04 12:16:25;;;;;;;21.87;15.10;;;7.20;99.90;;;;;;5108371;28;20263;-58
2020/12/04 12:18:50;;;;;;;22.13;14.13;;;7.30;99.90;;;;;;5122712;28;20264;-57
2020/12/04 12:21:17;;;;;;;21.40;14.07;;;7.40;99.90;;;;;;5122641;28;20834;-58
2020/12/04 12:23:42;;;;;;;23.27;13.90;;;7.50;99.90;;;;;;5122160;28;20194;-58
2020/12/04 12:26:08;;;;;;;18.37;14.03;;;7.30;99.90;;;;;;5101223;28;20478;-57
2020/12/04 12:28:33;;;;;;;18.03;12.97;;;7.40;99.90;;;;;;5101564;28;20173;-58
2020/12/04 12:31:00;;;;;;;16.37;14.30;;;7.20;99.90;;;;;;5101004;28;20165;-53
2020/12/04 12:33:26;;;;;;;20.40;13.27;;;7.10;99.90;;;;;;5093713;28;20284;-58
2020/12/04 12:35:51;;;;;;;17.97;13.17;;;7.30;99.90;;;;;;5081654;28;20471;-57
2020/12/04 12:38:17;;;;;;;15.83;12.77;;;7.40;99.90;;;;;;5081311;28;20494;-56
2020/12/04 12:40:42;;;;;;;15.00;12.00;;;7.50;99.90;;;;;;5082223;28;20178;-58
2020/12/04 12:43:08;;;;;;;18.10;13.30;;;7.60;99.90;;;;;;5081374;28;20194;-57
2020/12/04 12:45:34;;;;;;;22.13;13.27;;;7.50;99.90;;;;;;5082090;28;20189;-58